createdAt,value
2023-01-19T00:02:35.333Z,-0.18
2023-01-19T00:05:37.345Z,-0.20
2023-01-19T00:08:41.530Z,-0.07
2023-01-19T00:11:45.881Z,-0.25
2023-01-19T00:14:49.684Z,-0.21
2023-01-19T00:17:51.701Z,-0.26
2023-01-19T00:20:54.006Z,-0.25
2023-01-19T00:23:56.522Z,-0.24
2023-01-19T00:27:00.900Z,-0.20
2023-01-19T00:30:05.214Z,-0.20
2023-01-19T00:33:07.025Z,-0.29
2023-01-19T00:36:11.037Z,-0.40
2023-01-19T00:39:12.846Z,-0.24
2023-01-19T00:42:14.921Z,-0.22
2023-01-19T00:45:20.029Z,-0.20
2023-01-19T00:48:21.966Z,-0.33
2023-01-19T00:51:23.742Z,-0.27
2023-01-19T00:54:27.614Z,-0.27
2023-01-19T00:57:29.718Z,-0.21
2023-01-19T01:00:35.422Z,-0.36
2023-01-19T01:03:37.430Z,-0.32
2023-01-19T01:06:39.365Z,-0.28
2023-01-19T01:09:43.840Z,-0.34
2023-01-19T01:12:54.810Z,-0.41
2023-01-19T01:16:01.531Z,-0.38
2023-01-19T01:19:03.697Z,-0.34
2023-01-19T01:22:06.039Z,-0.51
2023-01-19T01:25:08.527Z,-0.59
2023-01-19T01:28:10.451Z,-0.56
2023-01-19T01:31:16.142Z,-0.60
2023-01-19T01:34:18.514Z,-0.59
2023-01-19T01:37:20.838Z,-0.66
2023-01-19T01:40:23.103Z,-0.60
2023-01-19T01:43:43.223Z,-0.61
2023-01-19T01:46:46.419Z,-0.68
2023-01-19T01:49:54.225Z,-0.54
2023-01-19T01:53:06.639Z,-0.67
2023-01-19T01:56:15.396Z,-0.66
2023-01-19T01:59:22.641Z,-0.63
2023-01-19T02:02:33.256Z,-0.64
2023-01-19T02:05:37.442Z,-0.72
2023-01-19T02:08:44.001Z,-0.79
2023-01-19T02:11:46.325Z,-0.81
2023-01-19T02:14:48.518Z,-0.80
2023-01-19T02:17:51.975Z,-0.80
2023-01-19T02:21:09.150Z,-0.78
2023-01-19T02:24:14.592Z,-0.64
2023-01-19T02:27:20.092Z,-0.68
2023-01-19T02:30:23.421Z,-0.71
2023-01-19T02:33:25.897Z,-0.64
2023-01-19T02:36:34.935Z,-0.68
2023-01-19T02:39:45.260Z,-0.70
2023-01-19T02:42:49.680Z,-0.72
2023-01-19T02:45:54.307Z,-0.73
2023-01-19T02:48:59.769Z,-0.71
2023-01-19T02:52:02.662Z,-0.69
2023-01-19T02:55:16.657Z,-0.68
2023-01-19T02:58:28.532Z,-0.60
2023-01-19T03:01:44.207Z,-0.62
2023-01-19T03:04:59.594Z,-0.71
2023-01-19T03:08:10.664Z,-0.66
2023-01-19T03:11:16.806Z,-0.73
2023-01-19T03:14:26.526Z,-0.72
2023-01-19T03:17:32.117Z,-0.65
2023-01-19T03:20:36.413Z,-0.66
2023-01-19T03:23:43.630Z,-0.54
2023-01-19T03:26:53.940Z,-0.66
2023-01-19T03:29:59.743Z,-0.72
2023-01-19T03:33:07.292Z,-0.71
2023-01-19T03:36:15.132Z,-0.80
2023-01-19T03:39:22.548Z,-0.83
2023-01-19T03:42:28.001Z,-0.73
2023-01-19T03:45:32.892Z,-0.73
2023-01-19T03:48:34.802Z,-0.62
2023-01-19T03:51:39.161Z,-0.52
2023-01-19T03:54:43.472Z,-0.54
2023-01-19T03:57:49.100Z,-0.67
2023-01-19T04:00:50.983Z,-0.79
2023-01-19T04:03:55.624Z,-0.74
2023-01-19T04:06:57.666Z,-0.73
2023-01-19T04:09:59.892Z,-0.77
2023-01-19T04:13:06.250Z,-0.76
2023-01-19T04:16:09.662Z,-0.77
2023-01-19T04:19:11.551Z,-0.74
2023-01-19T04:22:15.692Z,-0.72
2023-01-19T04:25:17.699Z,-0.86
2023-01-19T04:28:21.099Z,-0.79
2023-01-19T04:31:22.890Z,-0.80
2023-01-19T04:34:25.035Z,-0.95
2023-01-19T04:37:27.123Z,-0.88
2023-01-19T04:40:29.116Z,-0.76
2023-01-19T04:43:34.013Z,-0.70
2023-01-19T04:46:38.519Z,-0.87
2023-01-19T04:49:40.813Z,-0.93
2023-01-19T04:52:43.055Z,-0.92
2023-01-19T04:55:44.952Z,-0.93
2023-01-19T04:58:48.339Z,-0.88
2023-01-19T05:01:50.373Z,-0.84
2023-01-19T05:04:53.761Z,-0.89
2023-01-19T05:07:55.843Z,-0.96
2023-01-19T05:10:57.847Z,-0.99
2023-01-19T05:14:01.540Z,-0.98
2023-01-19T05:17:03.714Z,-1.07
2023-01-19T05:20:08.642Z,-1.02
2023-01-19T05:23:11.018Z,-0.93
2023-01-19T05:26:14.169Z,-1.01
2023-01-19T05:29:18.633Z,-1.11
2023-01-19T05:32:20.463Z,-1.16
2023-01-19T05:35:35.253Z,-1.22
2023-01-19T05:38:37.903Z,-1.45
2023-01-19T05:41:40.769Z,-1.52
2023-01-19T05:44:44.218Z,-1.38
2023-01-19T05:47:48.285Z,-1.46
2023-01-19T05:50:52.630Z,-1.64
2023-01-19T05:53:54.445Z,-1.56
2023-01-19T05:56:57.080Z,-1.65
2023-01-19T06:00:03.822Z,-1.70
2023-01-19T06:03:05.633Z,-1.70
2023-01-19T06:06:08.119Z,-1.72
2023-01-19T06:09:10.261Z,-1.75
2023-01-19T06:12:12.289Z,-1.69
2023-01-19T06:15:16.236Z,-1.80
2023-01-19T06:18:18.337Z,-1.74
2023-01-19T06:21:23.582Z,-1.72
2023-01-19T06:24:25.459Z,-1.65
2023-01-19T06:27:27.655Z,-1.79
2023-01-19T06:30:31.285Z,-1.81
2023-01-19T06:33:36.161Z,-1.90
2023-01-19T06:36:37.954Z,-1.84
2023-01-19T06:39:39.981Z,-1.82
2023-01-19T06:42:41.896Z,-1.76
2023-01-19T06:45:48.021Z,-1.76
2023-01-19T06:48:50.059Z,-1.76
2023-01-19T06:51:52.221Z,-1.71
2023-01-19T06:54:54.147Z,-1.75
2023-01-19T06:57:58.754Z,-1.63
2023-01-19T07:01:03.919Z,-1.69
2023-01-19T07:04:05.819Z,-1.74
2023-01-19T07:07:07.616Z,-1.63
2023-01-19T07:10:10.964Z,-1.62
2023-01-19T07:13:12.758Z,-1.63
2023-01-19T07:16:16.378Z,-1.61
2023-01-19T07:19:27.309Z,-1.63
2023-01-19T07:22:29.199Z,-1.79
2023-01-19T07:25:31.041Z,-1.70
2023-01-19T07:28:32.920Z,-1.57
2023-01-19T07:31:36.540Z,-1.60
2023-01-19T07:34:39.736Z,-1.69
2023-01-19T07:37:41.814Z,-1.64
2023-01-19T07:40:44.007Z,-1.79
2023-01-19T07:43:45.979Z,-1.68
2023-01-19T07:46:49.511Z,-1.73
2023-01-19T07:49:51.474Z,-1.73
2023-01-19T07:52:53.813Z,-1.69
2023-01-19T07:55:56.671Z,-1.67
2023-01-19T07:58:59.117Z,-1.68
2023-01-19T08:02:02.630Z,-1.72
2023-01-19T08:05:04.996Z,-1.55
2023-01-19T08:08:06.834Z,-1.49
2023-01-19T08:11:08.834Z,-1.41
2023-01-19T08:14:11.082Z,-1.39
2023-01-19T08:17:15.244Z,-1.35
2023-01-19T08:20:17.830Z,-1.38
2023-01-19T08:23:19.803Z,-1.47
2023-01-19T08:26:27.422Z,-1.55
2023-01-19T08:29:31.195Z,-1.49
2023-01-19T08:32:35.014Z,-1.55
2023-01-19T08:35:38.613Z,-1.59
2023-01-19T08:38:40.660Z,-1.63
2023-01-19T08:41:44.815Z,-1.77
2023-01-19T08:44:57.588Z,-1.87
2023-01-19T08:48:02.098Z,-1.91
2023-01-19T08:51:04.408Z,-1.99
2023-01-19T08:54:06.939Z,-2.06
2023-01-19T08:57:08.740Z,-1.99
2023-01-19T09:00:12.036Z,-2.04
2023-01-19T09:03:15.322Z,-1.96
2023-01-19T09:06:20.221Z,-2.11
2023-01-19T09:09:24.615Z,-2.16
2023-01-19T09:12:28.548Z,-2.24
2023-01-19T09:15:30.943Z,-2.13
2023-01-19T09:18:37.691Z,-2.08
2023-01-19T09:21:39.567Z,-2.15
2023-01-19T09:24:42.773Z,-2.24
2023-01-19T09:27:44.750Z,-2.17
2023-01-19T09:30:48.707Z,-2.09
2023-01-19T09:33:52.296Z,-2.04
2023-01-19T09:36:54.279Z,-2.04
2023-01-19T09:39:59.844Z,-1.84
2023-01-19T09:43:12.788Z,-1.77
2023-01-19T09:46:19.941Z,-1.80
2023-01-19T09:49:31.421Z,-1.79
2023-01-19T09:52:37.766Z,-1.83
2023-01-19T09:55:43.725Z,-1.72
2023-01-19T09:58:46.084Z,-1.65
2023-01-19T10:02:04.038Z,-1.47
2023-01-19T10:05:25.427Z,-1.38
2023-01-19T10:08:36.172Z,-1.32
2023-01-19T10:11:52.707Z,-1.37
2023-01-19T10:15:03.427Z,-1.29
2023-01-19T10:18:13.494Z,-1.26
2023-01-19T10:21:20.511Z,-1.22
2023-01-19T10:24:29.284Z,-1.29
2023-01-19T10:27:32.592Z,-1.23
2023-01-19T10:30:35.368Z,-1.30
2023-01-19T10:33:38.790Z,-1.31
2023-01-19T10:36:42.196Z,-1.44
2023-01-19T10:39:45.450Z,-1.51
2023-01-19T10:42:47.459Z,-1.55
2023-01-19T10:45:50.620Z,-1.48
2023-01-19T10:48:54.335Z,-1.50
2023-01-19T10:51:59.369Z,-1.36
2023-01-19T10:55:03.225Z,-1.41
2023-01-19T10:58:06.355Z,-1.51
2023-01-19T11:01:43.151Z,-1.53
2023-01-19T11:04:45.455Z,-1.41
2023-01-19T11:07:51.518Z,-1.32
2023-01-19T11:10:59.044Z,-1.32
2023-01-19T11:14:09.692Z,-1.30
2023-01-19T11:17:19.899Z,-1.41
2023-01-19T11:20:24.338Z,-1.41
2023-01-19T11:23:30.303Z,-1.31
2023-01-19T11:26:35.304Z,-1.34
2023-01-19T11:29:37.441Z,-1.34
2023-01-19T11:32:39.547Z,-1.29
2023-01-19T11:35:44.849Z,-1.41
2023-01-19T11:38:51.313Z,-1.40
2023-01-19T11:41:56.208Z,-1.49
2023-01-19T11:45:06.350Z,-1.50
2023-01-19T11:48:18.662Z,-1.42
2023-01-19T11:51:23.048Z,-1.40
2023-01-19T11:54:31.766Z,-1.32
2023-01-19T11:57:34.168Z,-1.44
2023-01-19T12:00:41.595Z,-1.41
2023-01-19T12:03:47.812Z,-1.38
2023-01-19T12:06:54.523Z,-1.48
2023-01-19T12:10:07.319Z,-1.58
2023-01-19T12:13:28.666Z,-1.55
2023-01-19T12:16:34.488Z,-1.41
2023-01-19T12:19:42.860Z,-1.52
2023-01-19T12:22:50.812Z,-1.41
2023-01-19T12:26:09.629Z,-1.47
2023-01-19T12:29:14.013Z,-1.46
2023-01-19T12:32:20.115Z,-1.50
2023-01-19T12:35:58.586Z,-1.44
2023-01-19T12:39:03.795Z,-1.43
2023-01-19T12:42:15.450Z,-1.35
2023-01-19T12:45:21.014Z,-1.35
2023-01-19T12:48:28.249Z,-1.30
2023-01-19T12:51:30.670Z,-1.36
2023-01-19T12:54:33.009Z,-1.29
2023-01-19T12:57:46.237Z,-1.26
2023-01-19T13:00:52.008Z,-1.20
2023-01-19T13:04:06.011Z,-1.11
2023-01-19T13:07:09.973Z,-1.26
2023-01-19T13:10:48.911Z,-1.22
2023-01-19T13:14:26.968Z,-1.08
2023-01-19T13:17:33.196Z,-1.19
2023-01-19T13:20:46.648Z,-1.19
2023-01-19T13:23:54.742Z,-1.07
2023-01-19T13:26:58.308Z,-1.08
2023-01-19T13:30:03.550Z,-1.11
2023-01-19T13:33:17.815Z,-1.13
2023-01-19T13:36:27.554Z,-0.97
2023-01-19T13:39:34.664Z,-1.12
2023-01-19T13:42:39.033Z,-1.13
2023-01-19T13:45:41.841Z,-1.08
2023-01-19T13:48:57.682Z,-1.10
2023-01-19T13:52:07.739Z,-1.02
2023-01-19T13:55:14.418Z,-1.01
2023-01-19T13:58:23.369Z,-0.98
2023-01-19T14:01:28.898Z,-0.97
2023-01-19T14:04:34.070Z,-0.98
2023-01-19T14:07:36.098Z,-0.92
2023-01-19T14:10:40.477Z,-0.98
2023-01-19T14:13:46.486Z,-0.95
2023-01-19T14:16:48.340Z,-0.91
2023-01-19T14:19:53.606Z,-0.82
2023-01-19T14:22:56.424Z,-0.86
2023-01-19T14:25:58.268Z,-0.86
2023-01-19T14:29:07.966Z,-0.86
2023-01-19T14:32:15.740Z,-0.92
2023-01-19T14:35:25.769Z,-0.98
2023-01-19T14:38:27.626Z,-1.12
2023-01-19T14:41:37.847Z,-1.17
2023-01-19T14:44:42.948Z,-1.20
2023-01-19T14:47:47.458Z,-1.21
2023-01-19T14:51:03.180Z,-1.18
2023-01-19T14:54:05.877Z,-1.17
2023-01-19T14:57:12.680Z,-1.21
2023-01-19T15:00:17.578Z,-1.20
2023-01-19T15:03:19.511Z,-1.23
2023-01-19T15:06:24.822Z,-1.18
2023-01-19T15:09:27.140Z,-1.22
2023-01-19T15:12:29.329Z,-1.20
2023-01-19T15:15:33.680Z,-1.19
2023-01-19T15:18:35.882Z,-1.17
2023-01-19T15:21:39.333Z,-1.22
2023-01-19T15:24:41.121Z,-1.20
2023-01-19T15:27:43.748Z,-1.21
2023-01-19T15:30:45.801Z,-1.18
2023-01-19T15:33:49.500Z,-1.15
2023-01-19T15:36:53.726Z,-1.18
2023-01-19T15:39:55.581Z,-1.03
2023-01-19T15:42:57.367Z,-0.95
2023-01-19T15:46:01.357Z,-1.01
2023-01-19T15:49:03.307Z,-1.00
2023-01-19T15:52:06.654Z,-1.00
2023-01-19T15:55:10.911Z,-0.96
2023-01-19T15:58:13.818Z,-0.91
2023-01-19T16:01:17.510Z,-1.03
2023-01-19T16:04:19.552Z,-0.95
2023-01-19T16:07:37.846Z,-0.97
2023-01-19T16:10:41.224Z,-0.91
2023-01-19T16:13:45.300Z,-1.16
2023-01-19T16:16:47.268Z,-1.14
2023-01-19T16:19:51.576Z,-1.08
2023-01-19T16:22:56.561Z,-1.09
2023-01-19T16:26:02.211Z,-1.07
2023-01-19T16:29:06.047Z,-1.11
2023-01-19T16:32:07.868Z,-1.04
2023-01-19T16:35:09.934Z,-1.07
2023-01-19T16:38:13.357Z,-1.04
2023-01-19T16:41:16.804Z,-1.03
2023-01-19T16:44:20.106Z,-1.03
2023-01-19T16:47:22.288Z,-0.99
2023-01-19T16:50:24.318Z,-0.95
2023-01-19T16:53:29.762Z,-0.94
2023-01-19T16:56:31.842Z,-0.92
2023-01-19T16:59:33.906Z,-0.88
2023-01-19T17:02:35.903Z,-0.85
2023-01-19T17:05:38.406Z,-0.83
2023-01-19T17:08:42.048Z,-0.80
2023-01-19T17:11:47.737Z,-0.82
2023-01-19T17:14:50.652Z,-0.81
2023-01-19T17:17:53.939Z,-0.82
2023-01-19T17:21:01.654Z,-0.83
2023-01-19T17:24:08.451Z,-0.82
2023-01-19T17:27:12.256Z,-0.78
2023-01-19T17:30:17.113Z,-0.76
2023-01-19T17:33:22.476Z,-0.75
2023-01-19T17:36:26.531Z,-0.80
2023-01-19T17:39:30.467Z,-0.82
2023-01-19T17:42:33.224Z,-0.91
2023-01-19T17:45:37.186Z,-0.88
2023-01-19T17:48:39.838Z,-1.01
2023-01-19T17:51:42.432Z,-1.04
2023-01-19T17:54:46.565Z,-1.06
2023-01-19T17:57:49.550Z,-1.00
2023-01-19T18:00:52.818Z,-0.96
2023-01-19T18:03:59.228Z,-1.05
2023-01-19T18:07:02.579Z,-1.05
2023-01-19T18:10:07.770Z,-1.04
2023-01-19T18:13:11.906Z,-0.99
2023-01-19T18:16:17.061Z,-1.09
2023-01-19T18:19:21.050Z,-1.08
2023-01-19T18:22:24.111Z,-1.18
2023-01-19T18:25:29.378Z,-1.13
2023-01-19T18:28:34.122Z,-1.29
2023-01-19T18:31:39.944Z,-1.17
2023-01-19T18:34:42.814Z,-1.33
2023-01-19T18:37:45.854Z,-1.33
2023-01-19T18:41:01.096Z,-1.26
2023-01-19T18:44:04.414Z,-1.29
2023-01-19T18:47:07.514Z,-1.21
2023-01-19T18:50:14.237Z,-1.31
2023-01-19T18:53:17.686Z,-1.43
2023-01-19T18:56:24.425Z,-1.37
2023-01-19T18:59:27.864Z,-1.49
2023-01-19T19:02:31.292Z,-1.42
2023-01-19T19:05:35.898Z,-1.38
2023-01-19T19:08:39.072Z,-1.30
2023-01-19T19:11:47.532Z,-1.35
2023-01-19T19:14:50.996Z,-1.42
2023-01-19T19:17:54.904Z,-1.48
2023-01-19T19:20:57.248Z,-1.43
2023-01-19T19:24:01.918Z,-1.37
2023-01-19T19:27:08.095Z,-1.39
2023-01-19T19:30:18.209Z,-1.45
2023-01-19T19:33:21.989Z,-1.54
2023-01-19T19:36:27.163Z,-1.49
2023-01-19T19:39:30.201Z,-1.50
2023-01-19T19:42:37.167Z,-1.60
2023-01-19T19:45:46.186Z,-1.61
2023-01-19T19:48:51.125Z,-1.67
2023-01-19T19:51:55.631Z,-1.59
2023-01-19T19:54:58.837Z,-1.70
2023-01-19T19:58:04.791Z,-1.83
2023-01-19T20:01:10.036Z,-1.76
2023-01-19T20:04:16.716Z,-1.88
2023-01-19T20:07:19.592Z,-1.98
2023-01-19T20:10:22.625Z,-2.02
2023-01-19T20:13:32.076Z,-2.01
2023-01-19T20:16:36.340Z,-2.00
2023-01-19T20:19:39.930Z,-2.01
2023-01-19T20:22:43.394Z,-2.06
2023-01-19T20:25:46.786Z,-1.99
2023-01-19T20:28:51.792Z,-2.04
2023-01-19T20:31:56.573Z,-2.13
2023-01-19T20:34:59.279Z,-2.18
2023-01-19T20:38:02.681Z,-2.25
2023-01-19T20:41:07.022Z,-2.23
2023-01-19T20:44:12.571Z,-2.35
2023-01-19T20:47:17.420Z,-2.39
2023-01-19T20:50:21.878Z,-2.38
2023-01-19T20:53:25.741Z,-2.51
2023-01-19T20:56:28.731Z,-2.59
2023-01-19T20:59:33.325Z,-2.63
2023-01-19T21:02:35.810Z,-2.64
2023-01-19T21:05:38.073Z,-2.90
2023-01-19T21:08:42.197Z,-2.82
2023-01-19T21:11:44.881Z,-2.95
2023-01-19T21:14:50.900Z,-2.91
2023-01-19T21:17:53.856Z,-2.92
2023-01-19T21:21:00.393Z,-2.85
2023-01-19T21:24:04.022Z,-2.92
2023-01-19T21:27:06.017Z,-2.88
2023-01-19T21:30:11.112Z,-3.10
2023-01-19T21:33:14.095Z,-3.08
2023-01-19T21:36:16.353Z,-3.14
2023-01-19T21:39:18.729Z,-3.19
2023-01-19T21:42:20.732Z,-3.10
2023-01-19T21:45:24.129Z,-3.13
2023-01-19T21:48:25.957Z,-3.15
2023-01-19T21:51:28.147Z,-3.03
2023-01-19T21:54:30.025Z,-3.11
2023-01-19T21:57:32.068Z,-3.06
2023-01-19T22:00:35.464Z,-3.12
2023-01-19T22:03:38.527Z,-3.27
2023-01-19T22:06:40.556Z,-3.35
2023-01-19T22:09:42.581Z,-3.38
2023-01-19T22:12:44.388Z,-3.30
2023-01-19T22:15:59.307Z,-3.27
2023-01-19T22:19:03.138Z,-3.25
2023-01-19T22:22:04.920Z,-3.21
2023-01-19T22:25:07.350Z,-3.27
2023-01-19T22:28:09.184Z,-3.55
2023-01-19T22:31:14.677Z,-3.57
2023-01-19T22:34:17.436Z,-3.71
2023-01-19T22:37:19.213Z,-4.09
2023-01-19T22:40:21.023Z,-3.81
2023-01-19T22:43:25.230Z,-3.70
2023-01-19T22:46:30.458Z,-3.73
2023-01-19T22:49:32.353Z,-4.13
2023-01-19T22:52:34.420Z,-4.20
2023-01-19T22:55:37.174Z,-4.17
2023-01-19T22:58:39.445Z,-4.00
2023-01-19T23:01:43.939Z,-3.92
2023-01-19T23:04:45.845Z,-3.66
2023-01-19T23:07:48.106Z,-4.01
2023-01-19T23:10:52.480Z,-3.80
2023-01-19T23:13:55.461Z,-3.68
2023-01-19T23:16:58.663Z,-3.60
2023-01-19T23:20:02.992Z,-3.45
2023-01-19T23:23:04.865Z,-3.34
2023-01-19T23:26:08.627Z,-3.26
2023-01-19T23:29:12.796Z,-3.25
2023-01-19T23:32:16.245Z,-3.35
2023-01-19T23:35:19.474Z,-3.14
2023-01-19T23:38:22.570Z,-3.11
2023-01-19T23:41:26.405Z,-3.12
2023-01-19T23:44:30.987Z,-3.15
2023-01-19T23:47:36.306Z,-3.06
2023-01-19T23:50:39.711Z,-3.13
2023-01-19T23:53:41.713Z,-3.11
2023-01-19T23:56:43.930Z,-3.16
2023-01-19T23:59:45.722Z,-3.15
